createdAt,value
2023-01-20T00:01:00.129Z,16.1
2023-01-20T00:04:02.143Z,15.8
2023-01-20T00:07:04.072Z,16.6
2023-01-20T00:10:06.033Z,17.8
2023-01-20T00:13:07.987Z,17.1
2023-01-20T00:16:09.995Z,22.1
2023-01-20T00:19:11.914Z,18.5
2023-01-20T00:22:13.863Z,19.2
2023-01-20T00:25:16.049Z,22.8
2023-01-20T00:28:17.832Z,19.1
2023-01-20T00:31:19.767Z,22.9
2023-01-20T00:34:21.709Z,18.7
2023-01-20T00:37:23.693Z,19.1
2023-01-20T00:40:25.646Z,19.8
2023-01-20T00:43:27.624Z,19
2023-01-20T00:46:29.623Z,19.9
2023-01-20T00:49:31.525Z,19.4
2023-01-20T00:52:33.519Z,19.7
2023-01-20T00:55:35.463Z,17.6
2023-01-20T00:58:37.507Z,21.8
2023-01-20T01:01:39.477Z,19.1
2023-01-20T01:04:41.338Z,22.2
2023-01-20T01:07:43.304Z,18.6
2023-01-20T01:10:45.275Z,18.5
2023-01-20T01:13:47.236Z,19.4
2023-01-20T01:16:49.202Z,21.6
2023-01-20T01:19:51.146Z,21.2
2023-01-20T01:22:53.144Z,16.8
2023-01-20T01:25:55.093Z,18.6
2023-01-20T01:28:57.091Z,21.2
2023-01-20T01:31:59.022Z,19.2
2023-01-20T01:35:00.981Z,21.1
2023-01-20T01:38:02.957Z,20.2
2023-01-20T01:41:04.984Z,19.2
2023-01-20T01:44:06.900Z,19.9
2023-01-20T01:47:08.870Z,21.2
2023-01-20T01:50:10.816Z,19
2023-01-20T01:53:12.836Z,19.9
2023-01-20T01:56:14.792Z,21.9
2023-01-20T01:59:16.722Z,18.4
2023-01-20T02:02:20.393Z,20.7
2023-01-20T02:05:20.650Z,22.7
2023-01-20T02:08:22.617Z,20.2
2023-01-20T02:11:24.572Z,20.2
2023-01-20T02:14:26.550Z,19.9
2023-01-20T02:17:28.497Z,21.9
2023-01-20T02:20:30.463Z,19.9
2023-01-20T02:23:32.424Z,20.5
2023-01-20T02:26:34.387Z,23.8
2023-01-20T02:29:36.359Z,22.8
2023-01-20T02:32:38.310Z,21.5
2023-01-20T02:35:40.261Z,20.8
2023-01-20T02:38:42.232Z,20.3
2023-01-20T02:41:44.190Z,20.6
2023-01-20T02:44:46.152Z,19.9
2023-01-20T02:47:50.701Z,20
2023-01-20T02:50:50.059Z,19.2
2023-01-20T02:53:52.050Z,18.7
2023-01-20T02:56:54.024Z,19
2023-01-20T02:59:55.952Z,21.1
2023-01-20T03:02:57.930Z,20
2023-01-20T03:05:59.939Z,16.3
2023-01-20T03:09:01.854Z,18.6
2023-01-20T03:12:03.818Z,16.4
2023-01-20T03:15:05.785Z,20.8
2023-01-20T03:18:07.762Z,19.1
2023-01-20T03:21:09.724Z,23.3
2023-01-20T03:24:11.708Z,20.8
2023-01-20T03:27:13.664Z,18.7
2023-01-20T03:30:15.626Z,18.3
2023-01-20T03:33:17.604Z,18.7
2023-01-20T03:36:19.565Z,21.2
2023-01-20T03:39:21.561Z,19
2023-01-20T03:42:23.504Z,16.8
2023-01-20T03:45:25.480Z,18
2023-01-20T03:48:27.426Z,17.8
2023-01-20T03:51:29.395Z,18.7
2023-01-20T03:54:31.368Z,18.2
2023-01-20T03:57:33.312Z,21.7
2023-01-20T04:00:35.286Z,22.7
2023-01-20T04:03:37.334Z,19.5
2023-01-20T04:06:39.222Z,19.8
2023-01-20T04:09:41.197Z,19
2023-01-20T04:12:43.209Z,18.2
2023-01-20T04:15:45.183Z,20
2023-01-20T04:18:47.097Z,19.6
2023-01-20T04:21:49.066Z,21
2023-01-20T04:24:51.015Z,20
2023-01-20T04:27:52.964Z,19.1
2023-01-20T04:30:55.111Z,18.6
2023-01-20T04:33:56.896Z,18.2
2023-01-20T04:36:58.859Z,20.4
2023-01-20T04:40:00.833Z,20
2023-01-20T04:43:02.853Z,16.8
2023-01-20T04:46:04.816Z,18.5
2023-01-20T04:49:06.731Z,18.5
2023-01-20T04:52:08.686Z,18.5
2023-01-20T04:55:10.662Z,18.8
2023-01-20T04:58:12.617Z,18.6
2023-01-20T05:01:14.664Z,18.2
2023-01-20T05:04:16.555Z,18.9
2023-01-20T05:07:18.519Z,16.9
2023-01-20T05:10:20.495Z,21.3
2023-01-20T05:13:22.418Z,22.7
2023-01-20T05:16:24.388Z,22.8
2023-01-20T05:19:26.358Z,20.7
2023-01-20T05:22:28.308Z,23.1
2023-01-20T05:25:30.282Z,19.3
2023-01-20T05:28:32.230Z,19.4
2023-01-20T05:31:34.297Z,18.9
2023-01-20T05:34:36.168Z,21.2
2023-01-20T05:37:38.109Z,19.1
2023-01-20T05:40:40.123Z,18.4
2023-01-20T05:43:42.035Z,21.3
2023-01-20T05:46:44.252Z,22.1
2023-01-20T05:49:45.960Z,20.8
2023-01-20T05:52:49.405Z,19.6
2023-01-20T05:55:49.915Z,18
2023-01-20T05:58:51.862Z,20
2023-01-20T06:01:53.958Z,21.3
2023-01-20T06:04:55.804Z,19.9
2023-01-20T06:07:57.743Z,17.7
2023-01-20T06:10:59.692Z,18.9
2023-01-20T06:14:01.655Z,20
2023-01-20T06:17:03.635Z,19
2023-01-20T06:20:05.576Z,22.8
2023-01-20T06:23:07.548Z,18.6
2023-01-20T06:26:09.517Z,21.1
2023-01-20T06:29:11.459Z,19.4
2023-01-20T06:32:13.420Z,19.4
2023-01-20T06:35:15.573Z,22.2
2023-01-20T06:38:17.353Z,22
2023-01-20T06:41:19.316Z,22
2023-01-20T06:44:21.285Z,22.9
2023-01-20T06:47:23.244Z,22.4
2023-01-20T06:50:25.217Z,21.7
2023-01-20T06:53:27.182Z,20.6
2023-01-20T06:56:29.632Z,20.7
2023-01-20T06:59:31.582Z,22.9
2023-01-20T07:02:33.553Z,19.5
2023-01-20T07:05:35.489Z,19.9
2023-01-20T07:08:37.457Z,18.3
2023-01-20T07:11:39.418Z,19.8
2023-01-20T07:14:41.407Z,19.3
2023-01-20T07:17:43.359Z,19.9
2023-01-20T07:20:45.312Z,20.6
2023-01-20T07:23:47.296Z,22.7
2023-01-20T07:26:49.254Z,19
2023-01-20T07:29:51.223Z,23.4
2023-01-20T07:32:53.180Z,23.3
2023-01-20T07:35:55.152Z,25.1
2023-01-20T07:38:57.109Z,21.5
2023-01-20T07:41:59.048Z,21.8
2023-01-20T07:45:01.029Z,24.7
2023-01-20T07:48:03.049Z,22.5
2023-01-20T07:51:05.136Z,26.6
2023-01-20T07:54:07.142Z,27.4
2023-01-20T07:57:09.090Z,25.2
2023-01-20T08:00:11.116Z,21.4
2023-01-20T08:03:13.028Z,21.4
2023-01-20T08:06:14.972Z,23.5
2023-01-20T08:09:16.960Z,24.9
2023-01-20T08:12:18.918Z,21
2023-01-20T08:15:20.881Z,23.3
2023-01-20T08:18:22.821Z,23.8
2023-01-20T08:21:24.778Z,25.1
2023-01-20T08:24:26.754Z,22.1
2023-01-20T08:27:28.737Z,25.4
2023-01-20T08:30:30.762Z,23.7
2023-01-20T08:33:32.678Z,23.8
2023-01-20T08:36:34.633Z,25.1
2023-01-20T08:39:36.609Z,22.5
2023-01-20T08:42:38.557Z,24.4
2023-01-20T08:45:40.648Z,25.4
2023-01-20T08:48:42.503Z,24.9
2023-01-20T08:51:44.759Z,22.9
2023-01-20T08:54:46.437Z,24.1
2023-01-20T08:57:48.401Z,22.9
2023-01-20T09:00:50.348Z,23.5
2023-01-20T09:04:04.649Z,25.6
2023-01-20T09:06:54.283Z,25.2
2023-01-20T09:09:56.252Z,25.1
2023-01-20T09:12:58.212Z,24.8
2023-01-20T09:16:00.284Z,23.8
2023-01-20T09:19:02.123Z,23.2
2023-01-20T09:22:04.079Z,22.6
2023-01-20T09:25:06.030Z,23.2
2023-01-20T09:28:07.995Z,23.1
2023-01-20T09:31:10.085Z,24.1
2023-01-20T09:34:13.423Z,21.3
2023-01-20T09:37:13.881Z,23.7
2023-01-20T09:40:16.138Z,24.9
2023-01-20T09:43:17.848Z,21.2
2023-01-20T09:46:19.854Z,21.6
2023-01-20T09:49:21.770Z,23.5
2023-01-20T09:52:23.788Z,23.8
2023-01-20T09:55:25.695Z,20.8
2023-01-20T09:58:27.649Z,22
2023-01-20T10:01:29.669Z,23.3
2023-01-20T10:04:31.583Z,19.5
2023-01-20T10:07:33.570Z,18.4
2023-01-20T10:10:35.517Z,20.6
2023-01-20T10:13:37.488Z,22.2
2023-01-20T10:16:39.429Z,18.5
2023-01-20T10:19:41.395Z,20.4
2023-01-20T10:22:43.348Z,19.6
2023-01-20T10:25:45.336Z,17.1
2023-01-20T10:28:47.266Z,17.7
2023-01-20T10:31:49.235Z,18.5
2023-01-20T10:34:51.184Z,19.4
2023-01-20T10:37:53.127Z,20.7
2023-01-20T10:40:55.181Z,21.8
2023-01-20T10:43:57.050Z,19.4
2023-01-20T10:46:59.015Z,20
2023-01-20T10:50:00.980Z,19.1
2023-01-20T10:53:02.932Z,16.9
2023-01-20T10:56:04.914Z,18.7
2023-01-20T10:59:06.857Z,17
2023-01-20T11:02:12.096Z,16.5
2023-01-20T11:05:10.779Z,19.4
2023-01-20T11:08:12.786Z,16.6
2023-01-20T11:11:14.705Z,17.3
2023-01-20T11:14:16.682Z,19.4
2023-01-20T11:17:18.658Z,16
2023-01-20T11:20:20.607Z,17.8
2023-01-20T11:23:22.570Z,16.5
2023-01-20T11:26:26.989Z,18.3
2023-01-20T11:29:26.484Z,16.3
2023-01-20T11:32:28.439Z,16.4
2023-01-20T11:35:30.401Z,14
2023-01-20T11:38:32.348Z,17.1
2023-01-20T11:41:34.335Z,16.4
2023-01-20T11:44:36.289Z,12.7
2023-01-20T11:47:38.263Z,13.4
2023-01-20T11:50:40.235Z,12
2023-01-20T11:53:42.177Z,13.7
2023-01-20T11:56:44.136Z,12.7
2023-01-20T11:59:46.138Z,11.7
2023-01-20T12:02:48.120Z,10.6
2023-01-20T12:05:50.055Z,10.8
2023-01-20T12:08:52.003Z,10.8
2023-01-20T12:11:54.036Z,10.8
2023-01-20T12:14:55.969Z,10.1
2023-01-20T12:17:57.930Z,11.3
2023-01-20T12:20:59.924Z,9.5
2023-01-20T12:24:03.231Z,9.4
2023-01-20T12:27:03.933Z,11.5
2023-01-20T12:30:05.893Z,9.6
2023-01-20T12:33:07.843Z,10.7
2023-01-20T12:36:09.883Z,11.3
2023-01-20T12:39:11.782Z,10.7
2023-01-20T12:42:13.771Z,11
2023-01-20T12:45:15.758Z,10.3
2023-01-20T12:48:17.737Z,9.6
2023-01-20T12:51:19.685Z,9.7
2023-01-20T12:54:21.757Z,10.5
2023-01-20T12:57:23.764Z,9.2
2023-01-20T13:00:25.733Z,8.9
2023-01-20T13:03:27.708Z,10.2
2023-01-20T13:06:29.660Z,9.5
2023-01-20T13:09:31.646Z,9.1
2023-01-20T13:12:33.577Z,10.1
2023-01-20T13:15:35.539Z,8.2
2023-01-20T13:18:37.491Z,10.9
2023-01-20T13:21:39.451Z,10.3
2023-01-20T13:24:41.459Z,8.9
2023-01-20T13:27:43.486Z,8.4
2023-01-20T13:30:45.538Z,8.8
2023-01-20T13:33:47.421Z,8.3
2023-01-20T13:36:49.377Z,9.4
2023-01-20T13:39:51.380Z,10.6
2023-01-20T13:42:53.335Z,8.3
2023-01-20T13:45:55.287Z,8.5
2023-01-20T13:48:57.233Z,9.2
2023-01-20T13:51:59.199Z,9
2023-01-20T13:55:01.183Z,9.8
2023-01-20T13:58:03.235Z,9.6
2023-01-20T14:01:05.209Z,9.8
2023-01-20T14:04:07.143Z,10
2023-01-20T14:07:09.092Z,10.1
2023-01-20T14:10:11.080Z,9.9
2023-01-20T14:13:13.064Z,10.4
2023-01-20T14:16:15.205Z,11
2023-01-20T14:19:16.964Z,9.1
2023-01-20T14:22:18.925Z,10.9
2023-01-20T14:25:20.904Z,10.8
2023-01-20T14:28:23.020Z,9.6
2023-01-20T14:31:25.085Z,9.5
2023-01-20T14:34:26.970Z,11.2
2023-01-20T14:37:28.927Z,11.4
2023-01-20T14:40:31.023Z,10.5
2023-01-20T14:43:32.857Z,10.4
2023-01-20T14:46:35.083Z,10.1
2023-01-20T14:49:36.811Z,9.1
2023-01-20T14:52:38.763Z,10.6
2023-01-20T14:55:40.826Z,10.3
2023-01-20T14:58:42.695Z,9.6
2023-01-20T15:01:44.768Z,10.8
2023-01-20T15:04:46.672Z,9.6
2023-01-20T15:07:48.653Z,11.4
2023-01-20T15:10:50.605Z,12.2
2023-01-20T15:13:52.542Z,11.1
2023-01-20T15:16:54.542Z,12.4
2023-01-20T15:19:56.551Z,11.6
2023-01-20T15:22:58.449Z,11
2023-01-20T15:26:00.534Z,13.1
2023-01-20T15:29:02.410Z,11.9
2023-01-20T15:32:04.337Z,13.7
2023-01-20T15:35:06.320Z,12.1
2023-01-20T15:38:08.296Z,13.4
2023-01-20T15:41:12.494Z,13.4
2023-01-20T15:44:12.267Z,14.8
2023-01-20T15:47:14.450Z,13.5
2023-01-20T15:50:16.669Z,14.4
2023-01-20T15:53:18.476Z,14.2
2023-01-20T15:56:20.470Z,14.9
2023-01-20T15:59:22.407Z,13.3
2023-01-20T16:02:24.480Z,15.2
2023-01-20T16:05:26.338Z,13.4
2023-01-20T16:08:28.302Z,11.8
2023-01-20T16:11:30.241Z,12.8
2023-01-20T16:14:32.216Z,12.7
2023-01-20T16:17:34.349Z,10.2
2023-01-20T16:20:36.329Z,11.5
2023-01-20T16:23:38.286Z,10.2
2023-01-20T16:26:40.242Z,11.7
2023-01-20T16:29:42.200Z,11.7
2023-01-20T16:32:44.171Z,13.3
2023-01-20T16:35:46.126Z,13.3
2023-01-20T16:38:48.067Z,14.1
2023-01-20T16:41:50.033Z,15.6
2023-01-20T16:44:52.125Z,15.4
2023-01-20T16:47:54.079Z,15.7
2023-01-20T16:50:56.107Z,16.7
2023-01-20T16:53:57.996Z,15.3
2023-01-20T16:56:59.986Z,15.6
2023-01-20T17:00:01.979Z,15.9
2023-01-20T17:03:04.035Z,17.2
2023-01-20T17:06:06.163Z,15.9
2023-01-20T17:09:08.103Z,14.5
2023-01-20T17:12:10.242Z,14.9
2023-01-20T17:15:12.415Z,14.1
2023-01-20T17:18:14.383Z,13.6
2023-01-20T17:21:16.355Z,13.9
2023-01-20T17:24:18.357Z,14.7
2023-01-20T17:27:20.431Z,13.9
2023-01-20T17:30:23.958Z,16.7
2023-01-20T17:33:27.172Z,16.5
2023-01-20T17:36:29.216Z,15.3
2023-01-20T17:39:31.223Z,16.4
2023-01-20T17:42:33.347Z,17.9
2023-01-20T17:45:35.441Z,15.4
2023-01-20T17:48:37.615Z,18
2023-01-20T17:51:39.591Z,18.3
2023-01-20T17:54:41.596Z,19.1
2023-01-20T17:57:43.569Z,17.4
2023-01-20T18:00:45.576Z,17.7
2023-01-20T18:03:47.566Z,16.5
2023-01-20T18:06:49.557Z,17
2023-01-20T18:09:51.515Z,16.1
2023-01-20T18:12:53.450Z,16.9
2023-01-20T18:15:55.404Z,15.4
2023-01-20T18:18:57.377Z,14.4
2023-01-20T18:21:59.344Z,17.9
2023-01-20T18:25:01.294Z,17.7
2023-01-20T18:28:03.288Z,14.6
2023-01-20T18:31:05.318Z,14.3
2023-01-20T18:34:07.251Z,14.4
2023-01-20T18:37:09.178Z,14.4
2023-01-20T18:40:11.144Z,15.6
2023-01-20T18:43:13.100Z,16.6
2023-01-20T18:46:15.114Z,14.4
2023-01-20T18:49:17.065Z,18.2
2023-01-20T18:52:19.023Z,18.5
2023-01-20T18:55:20.985Z,19.8
2023-01-20T18:58:22.969Z,17.3
2023-01-20T19:01:24.990Z,16.6
2023-01-20T19:04:26.898Z,16.5
2023-01-20T19:07:28.879Z,16.4
2023-01-20T19:10:30.820Z,14.7
2023-01-20T19:13:32.791Z,19
2023-01-20T19:16:34.750Z,14.9
2023-01-20T19:19:36.712Z,18.2
2023-01-20T19:22:38.671Z,15.3
2023-01-20T19:25:40.649Z,15.7
2023-01-20T19:28:42.597Z,15.7
2023-01-20T19:31:44.597Z,16.7
2023-01-20T19:34:46.515Z,14.9
2023-01-20T19:37:48.490Z,18.4
2023-01-20T19:40:50.431Z,16.7
2023-01-20T19:43:52.386Z,16.1
2023-01-20T19:46:54.367Z,14.6
2023-01-20T19:49:56.309Z,15.3
2023-01-20T19:52:58.296Z,15.3
2023-01-20T19:56:00.248Z,15.2
2023-01-20T19:59:02.224Z,16.7
2023-01-20T20:02:04.177Z,14.5
2023-01-20T20:05:06.133Z,12.3
2023-01-20T20:08:08.115Z,12.4
2023-01-20T20:11:10.102Z,13.4
2023-01-20T20:14:12.083Z,13.6
2023-01-20T20:17:14.049Z,15.1
2023-01-20T20:20:16.188Z,13.9
2023-01-20T20:23:17.975Z,13
2023-01-20T20:26:19.936Z,10.4
2023-01-20T20:29:21.900Z,8.1
2023-01-20T20:32:25.486Z,7.9
2023-01-20T20:35:25.823Z,8.4
2023-01-20T20:38:27.795Z,8.2
2023-01-20T20:41:29.787Z,7.7
2023-01-20T20:44:31.737Z,9.1
2023-01-20T20:47:33.695Z,8.9
2023-01-20T20:50:35.665Z,10.6
2023-01-20T20:53:37.633Z,10
2023-01-20T20:56:39.600Z,9.4
2023-01-20T20:59:57.722Z,10
2023-01-20T21:02:43.563Z,9.2
2023-01-20T21:05:45.760Z,10.2
2023-01-20T21:08:47.501Z,11.1
2023-01-20T21:11:49.445Z,10.3
2023-01-20T21:14:51.409Z,12.7
2023-01-20T21:17:53.368Z,12.4
2023-01-20T21:20:55.336Z,13.9
2023-01-20T21:23:57.425Z,13.5
2023-01-20T21:26:59.306Z,13.9
2023-01-20T21:30:01.289Z,17.8
2023-01-20T21:33:03.286Z,19.6
2023-01-20T21:36:05.229Z,21.8
2023-01-20T21:39:07.191Z,17.1
2023-01-20T21:42:09.173Z,21.4
2023-01-20T21:45:11.646Z,19.8
2023-01-20T21:48:13.942Z,22.4
2023-01-20T21:51:15.942Z,18.6
2023-01-20T21:54:18.532Z,23
2023-01-20T21:57:20.989Z,17.9
2023-01-20T22:00:21.700Z,22.3
2023-01-20T22:03:23.636Z,22.1
2023-01-20T22:06:25.628Z,20.8
2023-01-20T22:09:27.584Z,21.8
2023-01-20T22:12:29.584Z,22.2
2023-01-20T22:15:31.516Z,20
2023-01-20T22:18:33.543Z,21.3
2023-01-20T22:21:35.473Z,19.9
2023-01-20T22:24:37.404Z,17.6
2023-01-20T22:27:39.357Z,19
2023-01-20T22:30:41.325Z,18.5
2023-01-20T22:33:43.287Z,18.8
2023-01-20T22:36:45.282Z,18.5
2023-01-20T22:39:47.230Z,17.3
2023-01-20T22:42:49.192Z,18.3
2023-01-20T22:45:51.199Z,18.9
2023-01-20T22:48:53.158Z,17.9
2023-01-20T22:51:55.149Z,19.1
2023-01-20T22:54:57.110Z,17.8
2023-01-20T22:57:59.105Z,17.4
2023-01-20T23:01:01.167Z,16.1
2023-01-20T23:04:03.027Z,16.5
2023-01-20T23:07:04.988Z,18.6
2023-01-20T23:10:06.947Z,17.1
2023-01-20T23:13:08.952Z,17.1
2023-01-20T23:16:10.919Z,17.2
2023-01-20T23:19:12.868Z,18.2
2023-01-20T23:22:14.832Z,17.1
2023-01-20T23:25:16.788Z,17.5
2023-01-20T23:28:18.741Z,17
2023-01-20T23:31:20.816Z,17.2
2023-01-20T23:34:22.662Z,15.8
2023-01-20T23:37:24.647Z,16.5
2023-01-20T23:40:26.604Z,18.2
2023-01-20T23:43:28.539Z,16.8
2023-01-20T23:46:30.534Z,16.5
2023-01-20T23:49:32.481Z,16.4
2023-01-20T23:52:34.450Z,17.6
2023-01-20T23:55:36.417Z,17.5
2023-01-20T23:58:38.384Z,17.8
